sensor_id;sensor_type;location;lat;lon;timestamp;P1;durP1;ratioP1;P2;durP2;ratioP2
57329;SDS011;43163;51.032;18.280;2023-05-24T00:07:52;14.00;;;10.00;;
57329;SDS011;43163;51.032;18.280;2023-05-24T00:17:43;15.00;;;10.90;;
57329;SDS011;43163;51.032;18.280;2023-05-24T00:27:35;18.00;;;12.30;;
57329;SDS011;43163;51.032;18.280;2023-05-24T00:37:27;13.50;;;10.30;;
57329;SDS011;43163;51.032;18.280;2023-05-24T00:54:40;7.70;;;5.60;;
57329;SDS011;43163;51.032;18.280;2023-05-24T01:04:30;13.10;;;10.20;;
57329;SDS011;43163;51.032;18.280;2023-05-24T01:15:19;16.90;;;13.00;;
57329;SDS011;43163;51.032;18.280;2023-05-24T01:36:46;16.40;;;8.50;;
57329;SDS011;43163;51.032;18.280;2023-05-24T01:47:10;10.00;;;6.80;;
57329;SDS011;43163;51.032;18.280;2023-05-24T01:57:16;22.10;;;16.00;;
57329;SDS011;43163;51.032;18.280;2023-05-24T02:07:07;21.60;;;15.20;;
57329;SDS011;43163;51.032;18.280;2023-05-24T02:16:58;21.50;;;16.20;;
57329;SDS011;43163;51.032;18.280;2023-05-24T02:26:49;33.50;;;20.40;;
57329;SDS011;43163;51.032;18.280;2023-05-24T02:36:39;22.90;;;16.30;;
57329;SDS011;43163;51.032;18.280;2023-05-24T02:46:31;23.60;;;16.70;;
57329;SDS011;43163;51.032;18.280;2023-05-24T02:56:22;27.10;;;19.20;;
57329;SDS011;43163;51.032;18.280;2023-05-24T03:06:15;25.00;;;15.50;;
57329;SDS011;43163;51.032;18.280;2023-05-24T03:16:07;31.20;;;19.30;;
57329;SDS011;43163;51.032;18.280;2023-05-24T03:25:59;26.50;;;16.20;;
57329;SDS011;43163;51.032;18.280;2023-05-24T03:35:49;25.50;;;15.20;;
57329;SDS011;43163;51.032;18.280;2023-05-24T03:45:39;22.30;;;12.60;;
57329;SDS011;43163;51.032;18.280;2023-05-24T03:55:30;24.30;;;13.20;;
57329;SDS011;43163;51.032;18.280;2023-05-24T04:05:21;20.30;;;12.00;;
57329;SDS011;43163;51.032;18.280;2023-05-24T04:15:18;15.40;;;9.80;;
57329;SDS011;43163;51.032;18.280;2023-05-24T04:25:18;11.60;;;6.70;;
57329;SDS011;43163;51.032;18.280;2023-05-24T04:35:12;4.90;;;3.50;;
57329;SDS011;43163;51.032;18.280;2023-05-24T05:27:11;8.30;;;2.40;;
57329;SDS011;43163;51.032;18.280;2023-05-24T05:37:06;8.40;;;3.00;;
57329;SDS011;43163;51.032;18.280;2023-05-24T05:46:56;7.90;;;2.60;;
57329;SDS011;43163;51.032;18.280;2023-05-24T05:56:48;4.40;;;3.10;;
57329;SDS011;43163;51.032;18.280;2023-05-24T06:06:41;5.50;;;2.70;;
57329;SDS011;43163;51.032;18.280;2023-05-24T06:16:50;5.30;;;2.50;;
57329;SDS011;43163;51.032;18.280;2023-05-24T06:26:47;2.70;;;0.40;;
57329;SDS011;43163;51.032;18.280;2023-05-24T06:36:46;5.30;;;2.00;;
57329;SDS011;43163;51.032;18.280;2023-05-24T06:54:08;6.60;;;4.10;;
57329;SDS011;43163;51.032;18.280;2023-05-24T07:11:21;4.60;;;1.60;;
57329;SDS011;43163;51.032;18.280;2023-05-24T07:21:11;4.90;;;2.00;;
57329;SDS011;43163;51.032;18.280;2023-05-24T07:31:07;7.40;;;3.00;;
57329;SDS011;43163;51.032;18.280;2023-05-24T07:41:02;4.70;;;2.80;;
57329;SDS011;43163;51.032;18.280;2023-05-24T07:50:52;6.70;;;3.90;;
57329;SDS011;43163;51.032;18.280;2023-05-24T08:00:45;3.80;;;2.20;;
57329;SDS011;43163;51.032;18.280;2023-05-24T08:10:38;1.60;;;1.50;;
57329;SDS011;43163;51.032;18.280;2023-05-24T08:20:27;3.40;;;2.70;;
57329;SDS011;43163;51.032;18.280;2023-05-24T08:30:19;3.90;;;2.90;;
57329;SDS011;43163;51.032;18.280;2023-05-24T08:40:08;3.80;;;1.60;;
57329;SDS011;43163;51.032;18.280;2023-05-24T08:50:03;6.60;;;3.30;;
57329;SDS011;43163;51.032;18.280;2023-05-24T08:59:59;5.50;;;3.90;;
57329;SDS011;43163;51.032;18.280;2023-05-24T09:10:00;8.30;;;4.60;;
57329;SDS011;43163;51.032;18.280;2023-05-24T09:19:59;4.50;;;3.60;;
57329;SDS011;43163;51.032;18.280;2023-05-24T09:29:58;6.50;;;4.00;;
57329;SDS011;43163;51.032;18.280;2023-05-24T09:39:56;13.30;;;6.00;;
57329;SDS011;43163;51.032;18.280;2023-05-24T09:57:44;9.10;;;5.50;;
57329;SDS011;43163;51.032;18.280;2023-05-24T10:08:00;6.90;;;5.50;;
57329;SDS011;43163;51.032;18.280;2023-05-24T10:17:52;8.60;;;5.80;;
57329;SDS011;43163;51.032;18.280;2023-05-24T10:27:48;10.50;;;6.80;;
57329;SDS011;43163;51.032;18.280;2023-05-24T10:37:49;17.30;;;6.10;;
57329;SDS011;43163;51.032;18.280;2023-05-24T11:30:45;13.90;;;6.50;;
57329;SDS011;43163;51.032;18.280;2023-05-24T11:48:19;17.90;;;6.00;;
57329;SDS011;43163;51.032;18.280;2023-05-24T11:58:23;8.20;;;5.50;;
57329;SDS011;43163;51.032;18.280;2023-05-24T12:08:23;9.80;;;5.50;;
57329;SDS011;43163;51.032;18.280;2023-05-24T12:18:20;3.30;;;3.00;;
57329;SDS011;43163;51.032;18.280;2023-05-24T12:28:21;7.30;;;4.80;;
57329;SDS011;43163;51.032;18.280;2023-05-24T12:45:43;6.10;;;5.30;;
57329;SDS011;43163;51.032;18.280;2023-05-24T12:55:32;15.30;;;6.20;;
57329;SDS011;43163;51.032;18.280;2023-05-24T13:05:27;10.10;;;5.40;;
57329;SDS011;43163;51.032;18.280;2023-05-24T13:15:18;13.00;;;4.10;;
57329;SDS011;43163;51.032;18.280;2023-05-24T13:25:15;5.10;;;2.40;;
57329;SDS011;43163;51.032;18.280;2023-05-24T13:35:04;26.60;;;6.70;;
57329;SDS011;43163;51.032;18.280;2023-05-24T13:44:54;7.30;;;3.70;;
57329;SDS011;43163;51.032;18.280;2023-05-24T13:54:44;5.60;;;4.40;;
57329;SDS011;43163;51.032;18.280;2023-05-24T14:11:57;13.20;;;6.30;;
57329;SDS011;43163;51.032;18.280;2023-05-24T14:21:47;11.40;;;6.00;;
57329;SDS011;43163;51.032;18.280;2023-05-24T14:31:37;13.20;;;5.00;;
57329;SDS011;43163;51.032;18.280;2023-05-24T14:41:33;12.00;;;5.20;;
57329;SDS011;43163;51.032;18.280;2023-05-24T14:51:23;5.90;;;4.80;;
57329;SDS011;43163;51.032;18.280;2023-05-24T15:01:12;6.10;;;5.30;;
57329;SDS011;43163;51.032;18.280;2023-05-24T15:11:02;9.40;;;5.70;;
57329;SDS011;43163;51.032;18.280;2023-05-24T15:20:57;3.00;;;2.70;;
57329;SDS011;43163;51.032;18.280;2023-05-24T15:30:47;5.90;;;5.10;;
57329;SDS011;43163;51.032;18.280;2023-05-24T15:40:39;10.50;;;5.10;;
57329;SDS011;43163;51.032;18.280;2023-05-24T15:50:30;14.10;;;7.40;;
57329;SDS011;43163;51.032;18.280;2023-05-24T16:00:20;8.80;;;5.50;;
57329;SDS011;43163;51.032;18.280;2023-05-24T16:10:10;12.00;;;7.10;;
57329;SDS011;43163;51.032;18.280;2023-05-24T16:20:00;3.20;;;2.30;;
57329;SDS011;43163;51.032;18.280;2023-05-24T16:29:49;14.80;;;5.00;;
57329;SDS011;43163;51.032;18.280;2023-05-24T17:28:06;5.20;;;4.70;;
57329;SDS011;43163;51.032;18.280;2023-05-24T17:37:56;3.40;;;3.10;;
57329;SDS011;43163;51.032;18.280;2023-05-24T17:47:45;10.80;;;6.20;;
57329;SDS011;43163;51.032;18.280;2023-05-24T17:57:34;9.50;;;5.30;;
57329;SDS011;43163;51.032;18.280;2023-05-24T18:07:24;8.30;;;6.00;;
57329;SDS011;43163;51.032;18.280;2023-05-24T18:17:13;10.10;;;6.30;;
57329;SDS011;43163;51.032;18.280;2023-05-24T18:27:03;8.40;;;5.00;;
57329;SDS011;43163;51.032;18.280;2023-05-24T18:36:54;13.70;;;6.70;;
57329;SDS011;43163;51.032;18.280;2023-05-24T18:46:45;7.90;;;7.10;;
57329;SDS011;43163;51.032;18.280;2023-05-24T18:56:40;12.40;;;7.20;;
57329;SDS011;43163;51.032;18.280;2023-05-24T19:06:30;11.30;;;5.30;;
57329;SDS011;43163;51.032;18.280;2023-05-24T19:16:26;6.40;;;4.50;;
57329;SDS011;43163;51.032;18.280;2023-05-24T19:26:17;10.60;;;6.60;;
57329;SDS011;43163;51.032;18.280;2023-05-24T19:36:15;8.80;;;6.30;;
57329;SDS011;43163;51.032;18.280;2023-05-24T19:46:07;6.90;;;6.20;;
57329;SDS011;43163;51.032;18.280;2023-05-24T19:56:00;5.90;;;5.30;;
57329;SDS011;43163;51.032;18.280;2023-05-24T20:05:50;6.80;;;3.40;;
57329;SDS011;43163;51.032;18.280;2023-05-24T20:15:42;9.00;;;7.50;;
57329;SDS011;43163;51.032;18.280;2023-05-24T20:25:32;9.60;;;5.90;;
57329;SDS011;43163;51.032;18.280;2023-05-24T20:35:21;10.60;;;6.80;;
57329;SDS011;43163;51.032;18.280;2023-05-24T20:45:16;11.30;;;6.30;;
57329;SDS011;43163;51.032;18.280;2023-05-24T20:55:06;10.10;;;6.20;;
57329;SDS011;43163;51.032;18.280;2023-05-24T21:04:57;15.50;;;9.00;;
57329;SDS011;43163;51.032;18.280;2023-05-24T21:14:47;9.90;;;5.90;;
57329;SDS011;43163;51.032;18.280;2023-05-24T21:24:35;12.50;;;9.50;;
57329;SDS011;43163;51.032;18.280;2023-05-24T21:34:25;11.60;;;6.50;;
57329;SDS011;43163;51.032;18.280;2023-05-24T21:44:16;13.80;;;8.80;;
57329;SDS011;43163;51.032;18.280;2023-05-24T21:54:07;14.40;;;9.60;;
57329;SDS011;43163;51.032;18.280;2023-05-24T22:03:58;12.10;;;8.40;;
57329;SDS011;43163;51.032;18.280;2023-05-24T22:13:52;6.30;;;4.80;;
57329;SDS011;43163;51.032;18.280;2023-05-24T22:23:50;13.80;;;9.10;;
57329;SDS011;43163;51.032;18.280;2023-05-24T22:33:46;16.00;;;11.10;;
57329;SDS011;43163;51.032;18.280;2023-05-24T23:28:18;14.60;;;10.40;;
57329;SDS011;43163;51.032;18.280;2023-05-24T23:38:08;11.30;;;8.90;;
57329;SDS011;43163;51.032;18.280;2023-05-24T23:47:58;13.80;;;8.90;;
57329;SDS011;43163;51.032;18.280;2023-05-24T23:57:48;7.90;;;7.10;;
